sensor_id;sensor_type;location;lat;lon;timestamp;temperature;humidity
16999;DHT22;10211;49.476;11.010;2023-07-13T00:01:54;21.40;91.30
16999;DHT22;10211;49.476;11.010;2023-07-13T00:04:24;21.40;91.20
16999;DHT22;10211;49.476;11.010;2023-07-13T00:06:52;21.40;91.40
16999;DHT22;10211;49.476;11.010;2023-07-13T00:09:20;21.50;91.50
16999;DHT22;10211;49.476;11.010;2023-07-13T00:11:51;21.30;91.60
16999;DHT22;10211;49.476;11.010;2023-07-13T00:14:18;21.30;91.60
16999;DHT22;10211;49.476;11.010;2023-07-13T00:16:46;21.30;91.90
16999;DHT22;10211;49.476;11.010;2023-07-13T00:19:13;21.20;92.00
16999;DHT22;10211;49.476;11.010;2023-07-13T00:21:41;21.20;92.20
16999;DHT22;10211;49.476;11.010;2023-07-13T00:24:11;21.10;92.30
16999;DHT22;10211;49.476;11.010;2023-07-13T00:26:39;21.10;92.30
16999;DHT22;10211;49.476;11.010;2023-07-13T00:29:06;21.00;92.40
16999;DHT22;10211;49.476;11.010;2023-07-13T00:31:34;21.00;92.50
16999;DHT22;10211;49.476;11.010;2023-07-13T00:34:01;21.00;92.60
16999;DHT22;10211;49.476;11.010;2023-07-13T00:36:29;21.10;92.80
16999;DHT22;10211;49.476;11.010;2023-07-13T00:38:57;21.00;92.80
16999;DHT22;10211;49.476;11.010;2023-07-13T00:41:24;21.30;92.80
16999;DHT22;10211;49.476;11.010;2023-07-13T00:43:51;21.00;92.80
16999;DHT22;10211;49.476;11.010;2023-07-13T00:46:22;21.00;92.70
16999;DHT22;10211;49.476;11.010;2023-07-13T00:48:50;21.00;92.90
16999;DHT22;10211;49.476;11.010;2023-07-13T00:51:20;20.90;92.80
16999;DHT22;10211;49.476;11.010;2023-07-13T00:53:48;20.90;92.80
16999;DHT22;10211;49.476;11.010;2023-07-13T00:56:17;20.90;93.20
16999;DHT22;10211;49.476;11.010;2023-07-13T00:58:44;20.90;93.00
16999;DHT22;10211;49.476;11.010;2023-07-13T01:01:11;20.80;93.00
16999;DHT22;10211;49.476;11.010;2023-07-13T01:03:38;20.70;93.00
16999;DHT22;10211;49.476;11.010;2023-07-13T01:06:06;20.80;93.10
16999;DHT22;10211;49.476;11.010;2023-07-13T01:08:32;20.70;93.10
16999;DHT22;10211;49.476;11.010;2023-07-13T01:10:59;20.70;93.20
16999;DHT22;10211;49.476;11.010;2023-07-13T01:13:27;20.60;93.30
16999;DHT22;10211;49.476;11.010;2023-07-13T01:15:58;20.50;93.40
16999;DHT22;10211;49.476;11.010;2023-07-13T01:18:26;20.40;93.70
16999;DHT22;10211;49.476;11.010;2023-07-13T01:20:56;20.30;93.70
16999;DHT22;10211;49.476;11.010;2023-07-13T01:23:23;20.30;93.90
16999;DHT22;10211;49.476;11.010;2023-07-13T01:25:51;20.30;93.90
16999;DHT22;10211;49.476;11.010;2023-07-13T01:28:18;20.20;94.00
16999;DHT22;10211;49.476;11.010;2023-07-13T01:30:46;20.10;94.20
16999;DHT22;10211;49.476;11.010;2023-07-13T01:33:13;20.10;94.40
16999;DHT22;10211;49.476;11.010;2023-07-13T01:35:40;20.00;94.50
16999;DHT22;10211;49.476;11.010;2023-07-13T01:38:10;20.00;94.60
16999;DHT22;10211;49.476;11.010;2023-07-13T01:40:37;19.90;94.60
16999;DHT22;10211;49.476;11.010;2023-07-13T01:43:05;19.90;94.90
16999;DHT22;10211;49.476;11.010;2023-07-13T01:45:32;19.80;94.90
16999;DHT22;10211;49.476;11.010;2023-07-13T01:47:59;19.80;95.00
16999;DHT22;10211;49.476;11.010;2023-07-13T01:50:26;19.90;95.10
16999;DHT22;10211;49.476;11.010;2023-07-13T01:52:53;19.80;95.20
16999;DHT22;10211;49.476;11.010;2023-07-13T01:55:21;19.70;95.30
16999;DHT22;10211;49.476;11.010;2023-07-13T01:57:48;19.80;95.40
16999;DHT22;10211;49.476;11.010;2023-07-13T02:00:16;19.60;95.60
16999;DHT22;10211;49.476;11.010;2023-07-13T02:02:43;19.50;95.80
16999;DHT22;10211;49.476;11.010;2023-07-13T02:05:10;19.40;95.90
16999;DHT22;10211;49.476;11.010;2023-07-13T02:07:37;19.40;96.10
16999;DHT22;10211;49.476;11.010;2023-07-13T02:10:04;19.30;96.40
16999;DHT22;10211;49.476;11.010;2023-07-13T02:12:33;19.30;96.50
16999;DHT22;10211;49.476;11.010;2023-07-13T02:14:59;19.20;96.70
16999;DHT22;10211;49.476;11.010;2023-07-13T02:17:26;19.10;96.90
16999;DHT22;10211;49.476;11.010;2023-07-13T02:19:53;19.10;97.00
16999;DHT22;10211;49.476;11.010;2023-07-13T02:22:20;19.00;97.20
16999;DHT22;10211;49.476;11.010;2023-07-13T02:24:47;19.00;97.00
16999;DHT22;10211;49.476;11.010;2023-07-13T02:27:14;19.00;97.20
16999;DHT22;10211;49.476;11.010;2023-07-13T02:29:42;19.00;97.20
16999;DHT22;10211;49.476;11.010;2023-07-13T02:32:10;19.10;97.30
16999;DHT22;10211;49.476;11.010;2023-07-13T02:34:36;18.90;97.20
16999;DHT22;10211;49.476;11.010;2023-07-13T02:37:04;18.90;97.30
16999;DHT22;10211;49.476;11.010;2023-07-13T02:39:30;18.80;97.40
16999;DHT22;10211;49.476;11.010;2023-07-13T02:41:58;18.80;97.50
16999;DHT22;10211;49.476;11.010;2023-07-13T02:44:25;18.80;97.50
16999;DHT22;10211;49.476;11.010;2023-07-13T02:46:53;18.70;97.80
16999;DHT22;10211;49.476;11.010;2023-07-13T02:49:20;18.70;97.90
16999;DHT22;10211;49.476;11.010;2023-07-13T02:51:47;18.60;98.00
16999;DHT22;10211;49.476;11.010;2023-07-13T02:54:14;18.60;98.10
16999;DHT22;10211;49.476;11.010;2023-07-13T02:56:41;18.50;98.20
16999;DHT22;10211;49.476;11.010;2023-07-13T02:59:09;18.50;98.50
16999;DHT22;10211;49.476;11.010;2023-07-13T03:01:35;18.40;98.60
16999;DHT22;10211;49.476;11.010;2023-07-13T03:04:04;18.30;98.70
16999;DHT22;10211;49.476;11.010;2023-07-13T03:06:31;18.30;99.00
16999;DHT22;10211;49.476;11.010;2023-07-13T03:08:58;18.20;99.10
16999;DHT22;10211;49.476;11.010;2023-07-13T03:11:25;18.20;99.50
16999;DHT22;10211;49.476;11.010;2023-07-13T03:13:52;18.10;99.60
16999;DHT22;10211;49.476;11.010;2023-07-13T03:16:19;18.10;99.50
16999;DHT22;10211;49.476;11.010;2023-07-13T03:18:47;18.40;99.80
16999;DHT22;10211;49.476;11.010;2023-07-13T03:21:15;18.00;99.90
16999;DHT22;10211;49.476;11.010;2023-07-13T03:23:42;17.90;99.90
16999;DHT22;10211;49.476;11.010;2023-07-13T03:26:11;17.90;99.90
16999;DHT22;10211;49.476;11.010;2023-07-13T03:28:38;17.90;99.90
16999;DHT22;10211;49.476;11.010;2023-07-13T03:31:07;17.80;99.90
16999;DHT22;10211;49.476;11.010;2023-07-13T03:33:34;17.80;99.90
16999;DHT22;10211;49.476;11.010;2023-07-13T03:36:01;17.80;99.90
16999;DHT22;10211;49.476;11.010;2023-07-13T03:38:29;17.80;99.90
16999;DHT22;10211;49.476;11.010;2023-07-13T03:40:56;17.80;99.90
16999;DHT22;10211;49.476;11.010;2023-07-13T03:43:22;17.80;99.90
16999;DHT22;10211;49.476;11.010;2023-07-13T03:45:48;17.80;99.90
16999;DHT22;10211;49.476;11.010;2023-07-13T03:48:15;17.80;99.90
16999;DHT22;10211;49.476;11.010;2023-07-13T03:50:42;17.80;99.90
16999;DHT22;10211;49.476;11.010;2023-07-13T03:53:09;17.80;99.90
16999;DHT22;10211;49.476;11.010;2023-07-13T03:55:37;17.80;99.90
16999;DHT22;10211;49.476;11.010;2023-07-13T03:58:28;17.80;99.90
16999;DHT22;10211;49.476;11.010;2023-07-13T04:00:56;17.70;99.90
16999;DHT22;10211;49.476;11.010;2023-07-13T04:03:24;17.80;99.90
16999;DHT22;10211;49.476;11.010;2023-07-13T04:05:53;17.90;99.90
16999;DHT22;10211;49.476;11.010;2023-07-13T04:08:20;17.80;99.90
16999;DHT22;10211;49.476;11.010;2023-07-13T04:10:48;17.80;99.90
16999;DHT22;10211;49.476;11.010;2023-07-13T04:13:15;17.80;99.90
16999;DHT22;10211;49.476;11.010;2023-07-13T04:15:42;17.80;99.90
16999;DHT22;10211;49.476;11.010;2023-07-13T04:18:08;17.90;99.90
16999;DHT22;10211;49.476;11.010;2023-07-13T04:20:35;17.90;99.90
16999;DHT22;10211;49.476;11.010;2023-07-13T04:23:02;17.80;99.90
16999;DHT22;10211;49.476;11.010;2023-07-13T04:25:29;17.80;99.90
16999;DHT22;10211;49.476;11.010;2023-07-13T04:27:57;17.80;99.90
16999;DHT22;10211;49.476;11.010;2023-07-13T04:30:24;17.70;99.90
16999;DHT22;10211;49.476;11.010;2023-07-13T04:32:52;17.70;99.90
16999;DHT22;10211;49.476;11.010;2023-07-13T04:35:19;17.70;99.90
16999;DHT22;10211;49.476;11.010;2023-07-13T04:37:47;17.70;99.90
16999;DHT22;10211;49.476;11.010;2023-07-13T04:40:15;17.70;99.90
16999;DHT22;10211;49.476;11.010;2023-07-13T04:42:42;17.90;99.90
16999;DHT22;10211;49.476;11.010;2023-07-13T04:45:10;17.80;99.90
16999;DHT22;10211;49.476;11.010;2023-07-13T04:47:37;17.80;99.90
16999;DHT22;10211;49.476;11.010;2023-07-13T04:50:04;17.90;99.90
16999;DHT22;10211;49.476;11.010;2023-07-13T04:52:31;17.90;99.90
16999;DHT22;10211;49.476;11.010;2023-07-13T04:54:59;18.40;99.90
16999;DHT22;10211;49.476;11.010;2023-07-13T04:57:26;18.10;99.90
16999;DHT22;10211;49.476;11.010;2023-07-13T04:59:52;18.30;99.80
16999;DHT22;10211;49.476;11.010;2023-07-13T05:02:21;18.30;99.30
16999;DHT22;10211;49.476;11.010;2023-07-13T05:04:48;18.40;99.30
16999;DHT22;10211;49.476;11.010;2023-07-13T05:07:15;18.40;99.10
16999;DHT22;10211;49.476;11.010;2023-07-13T05:09:42;18.50;99.10
16999;DHT22;10211;49.476;11.010;2023-07-13T05:12:09;18.50;99.10
16999;DHT22;10211;49.476;11.010;2023-07-13T05:14:36;18.50;99.10
16999;DHT22;10211;49.476;11.010;2023-07-13T05:17:03;18.60;98.90
16999;DHT22;10211;49.476;11.010;2023-07-13T05:19:32;18.60;98.90
16999;DHT22;10211;49.476;11.010;2023-07-13T05:21:58;18.60;98.80
16999;DHT22;10211;49.476;11.010;2023-07-13T05:24:26;18.60;98.60
16999;DHT22;10211;49.476;11.010;2023-07-13T05:26:52;18.60;98.70
16999;DHT22;10211;49.476;11.010;2023-07-13T05:29:19;18.60;98.60
16999;DHT22;10211;49.476;11.010;2023-07-13T05:31:46;18.70;98.50
16999;DHT22;10211;49.476;11.010;2023-07-13T05:34:13;18.90;98.20
16999;DHT22;10211;49.476;11.010;2023-07-13T05:36:41;19.10;97.70
16999;DHT22;10211;49.476;11.010;2023-07-13T05:39:08;19.30;97.10
16999;DHT22;10211;49.476;11.010;2023-07-13T05:41:35;19.50;96.80
16999;DHT22;10211;49.476;11.010;2023-07-13T05:44:02;19.60;96.60
16999;DHT22;10211;49.476;11.010;2023-07-13T05:46:29;20.00;95.90
16999;DHT22;10211;49.476;11.010;2023-07-13T05:48:56;20.40;95.10
16999;DHT22;10211;49.476;11.010;2023-07-13T05:51:23;20.80;94.30
16999;DHT22;10211;49.476;11.010;2023-07-13T05:53:51;20.80;93.70
16999;DHT22;10211;49.476;11.010;2023-07-13T05:56:18;20.80;93.20
16999;DHT22;10211;49.476;11.010;2023-07-13T05:58:44;20.90;93.00
16999;DHT22;10211;49.476;11.010;2023-07-13T06:01:13;21.20;92.50
16999;DHT22;10211;49.476;11.010;2023-07-13T06:03:40;21.40;92.00
16999;DHT22;10211;49.476;11.010;2023-07-13T06:06:08;21.60;91.60
16999;DHT22;10211;49.476;11.010;2023-07-13T06:08:36;21.60;90.70
16999;DHT22;10211;49.476;11.010;2023-07-13T06:11:05;21.60;90.90
16999;DHT22;10211;49.476;11.010;2023-07-13T06:13:33;21.50;90.90
16999;DHT22;10211;49.476;11.010;2023-07-13T06:16:00;21.40;91.00
16999;DHT22;10211;49.476;11.010;2023-07-13T06:18:29;21.20;91.30
16999;DHT22;10211;49.476;11.010;2023-07-13T06:20:56;20.80;91.50
16999;DHT22;10211;49.476;11.010;2023-07-13T06:23:23;20.40;91.90
16999;DHT22;10211;49.476;11.010;2023-07-13T06:25:50;20.20;92.20
16999;DHT22;10211;49.476;11.010;2023-07-13T06:28:19;20.50;92.30
16999;DHT22;10211;49.476;11.010;2023-07-13T06:30:45;20.70;91.90
16999;DHT22;10211;49.476;11.010;2023-07-13T06:33:12;20.90;91.60
16999;DHT22;10211;49.476;11.010;2023-07-13T06:35:39;21.20;91.10
16999;DHT22;10211;49.476;11.010;2023-07-13T06:38:05;21.50;90.60
16999;DHT22;10211;49.476;11.010;2023-07-13T06:40:32;21.50;90.70
16999;DHT22;10211;49.476;11.010;2023-07-13T06:42:59;21.40;90.50
16999;DHT22;10211;49.476;11.010;2023-07-13T06:45:27;21.50;90.60
16999;DHT22;10211;49.476;11.010;2023-07-13T06:47:53;21.30;90.30
16999;DHT22;10211;49.476;11.010;2023-07-13T06:50:20;21.20;90.50
16999;DHT22;10211;49.476;11.010;2023-07-13T06:52:47;21.10;90.50
16999;DHT22;10211;49.476;11.010;2023-07-13T06:55:14;21.00;90.80
16999;DHT22;10211;49.476;11.010;2023-07-13T06:57:41;21.00;90.90
16999;DHT22;10211;49.476;11.010;2023-07-13T07:00:08;21.10;90.70
16999;DHT22;10211;49.476;11.010;2023-07-13T07:02:36;21.10;90.60
16999;DHT22;10211;49.476;11.010;2023-07-13T07:05:03;21.10;91.10
16999;DHT22;10211;49.476;11.010;2023-07-13T07:07:30;21.20;91.30
16999;DHT22;10211;49.476;11.010;2023-07-13T07:09:57;21.40;90.40
16999;DHT22;10211;49.476;11.010;2023-07-13T07:12:24;21.60;90.40
16999;DHT22;10211;49.476;11.010;2023-07-13T07:14:50;21.80;90.30
16999;DHT22;10211;49.476;11.010;2023-07-13T07:17:17;22.10;88.60
16999;DHT22;10211;49.476;11.010;2023-07-13T07:19:45;22.30;88.10
16999;DHT22;10211;49.476;11.010;2023-07-13T07:22:12;22.30;87.90
16999;DHT22;10211;49.476;11.010;2023-07-13T07:24:39;22.30;87.80
16999;DHT22;10211;49.476;11.010;2023-07-13T07:27:06;22.40;87.90
16999;DHT22;10211;49.476;11.010;2023-07-13T07:29:33;22.50;87.40
16999;DHT22;10211;49.476;11.010;2023-07-13T07:31:59;22.60;86.60
16999;DHT22;10211;49.476;11.010;2023-07-13T07:34:26;22.70;86.80
16999;DHT22;10211;49.476;11.010;2023-07-13T07:36:54;22.80;83.90
16999;DHT22;10211;49.476;11.010;2023-07-13T07:39:21;23.00;83.80
16999;DHT22;10211;49.476;11.010;2023-07-13T07:41:48;22.80;83.50
16999;DHT22;10211;49.476;11.010;2023-07-13T07:44:15;22.70;83.80
16999;DHT22;10211;49.476;11.010;2023-07-13T07:46:41;22.40;84.30
16999;DHT22;10211;49.476;11.010;2023-07-13T07:49:10;22.20;84.80
16999;DHT22;10211;49.476;11.010;2023-07-13T07:51:38;22.10;84.80
16999;DHT22;10211;49.476;11.010;2023-07-13T07:54:06;22.10;85.30
16999;DHT22;10211;49.476;11.010;2023-07-13T07:56:35;22.10;84.80
16999;DHT22;10211;49.476;11.010;2023-07-13T07:59:02;22.20;85.60
16999;DHT22;10211;49.476;11.010;2023-07-13T08:01:29;22.30;84.20
16999;DHT22;10211;49.476;11.010;2023-07-13T08:03:56;22.50;84.00
16999;DHT22;10211;49.476;11.010;2023-07-13T08:06:23;22.60;84.30
16999;DHT22;10211;49.476;11.010;2023-07-13T08:08:50;22.60;83.10
16999;DHT22;10211;49.476;11.010;2023-07-13T08:11:20;22.60;82.70
16999;DHT22;10211;49.476;11.010;2023-07-13T08:13:47;22.50;81.70
16999;DHT22;10211;49.476;11.010;2023-07-13T08:16:14;22.40;80.80
16999;DHT22;10211;49.476;11.010;2023-07-13T08:18:41;22.40;81.30
16999;DHT22;10211;49.476;11.010;2023-07-13T08:21:09;22.40;78.10
16999;DHT22;10211;49.476;11.010;2023-07-13T08:23:35;22.50;77.90
16999;DHT22;10211;49.476;11.010;2023-07-13T08:26:02;22.50;77.00
16999;DHT22;10211;49.476;11.010;2023-07-13T08:28:31;22.80;76.50
16999;DHT22;10211;49.476;11.010;2023-07-13T08:31:00;23.20;74.30
16999;DHT22;10211;49.476;11.010;2023-07-13T08:33:27;23.20;73.20
16999;DHT22;10211;49.476;11.010;2023-07-13T08:35:54;23.20;69.70
16999;DHT22;10211;49.476;11.010;2023-07-13T08:38:20;23.30;69.50
16999;DHT22;10211;49.476;11.010;2023-07-13T08:40:51;23.20;70.10
16999;DHT22;10211;49.476;11.010;2023-07-13T08:43:23;23.20;70.40
16999;DHT22;10211;49.476;11.010;2023-07-13T08:45:57;23.20;72.10
16999;DHT22;10211;49.476;11.010;2023-07-13T08:48:27;23.20;73.80
16999;DHT22;10211;49.476;11.010;2023-07-13T08:50:59;23.30;72.10
16999;DHT22;10211;49.476;11.010;2023-07-13T08:53:32;23.30;70.70
16999;DHT22;10211;49.476;11.010;2023-07-13T08:56:00;23.20;70.90
16999;DHT22;10211;49.476;11.010;2023-07-13T08:58:29;23.10;69.90
16999;DHT22;10211;49.476;11.010;2023-07-13T09:01:03;23.20;70.40
16999;DHT22;10211;49.476;11.010;2023-07-13T09:03:37;23.20;72.00
16999;DHT22;10211;49.476;11.010;2023-07-13T09:06:10;23.30;72.90
16999;DHT22;10211;49.476;11.010;2023-07-13T09:08:49;23.40;72.80
16999;DHT22;10211;49.476;11.010;2023-07-13T09:11:36;23.60;70.20
16999;DHT22;10211;49.476;11.010;2023-07-13T09:14:26;23.60;69.60
16999;DHT22;10211;49.476;11.010;2023-07-13T09:16:59;23.50;69.20
16999;DHT22;10211;49.476;11.010;2023-07-13T09:19:28;23.50;69.50
16999;DHT22;10211;49.476;11.010;2023-07-13T09:21:59;23.60;69.70
16999;DHT22;10211;49.476;11.010;2023-07-13T09:24:35;23.80;70.20
16999;DHT22;10211;49.476;11.010;2023-07-13T09:27:10;24.00;69.40
16999;DHT22;10211;49.476;11.010;2023-07-13T09:29:41;24.40;65.80
16999;DHT22;10211;49.476;11.010;2023-07-13T09:32:14;24.60;65.40
16999;DHT22;10211;49.476;11.010;2023-07-13T09:34:50;25.30;63.10
16999;DHT22;10211;49.476;11.010;2023-07-13T09:37:19;25.50;62.70
16999;DHT22;10211;49.476;11.010;2023-07-13T09:39:47;25.40;60.00
16999;DHT22;10211;49.476;11.010;2023-07-13T09:42:17;25.70;60.10
16999;DHT22;10211;49.476;11.010;2023-07-13T09:44:52;26.10;60.00
16999;DHT22;10211;49.476;11.010;2023-07-13T09:47:23;27.40;56.80
16999;DHT22;10211;49.476;11.010;2023-07-13T09:49:56;28.10;56.00
16999;DHT22;10211;49.476;11.010;2023-07-13T09:52:24;29.40;54.80
16999;DHT22;10211;49.476;11.010;2023-07-13T09:54:53;31.10;52.00
16999;DHT22;10211;49.476;11.010;2023-07-13T09:57:26;32.00;49.30
16999;DHT22;10211;49.476;11.010;2023-07-13T09:59:55;32.50;48.50
16999;DHT22;10211;49.476;11.010;2023-07-13T10:02:28;34.40;46.60
16999;DHT22;10211;49.476;11.010;2023-07-13T10:04:57;36.50;44.50
16999;DHT22;10211;49.476;11.010;2023-07-13T10:07:24;38.60;40.40
16999;DHT22;10211;49.476;11.010;2023-07-13T10:09:52;39.10;39.00
16999;DHT22;10211;49.476;11.010;2023-07-13T10:12:20;40.70;38.10
16999;DHT22;10211;49.476;11.010;2023-07-13T10:14:50;42.50;36.20
16999;DHT22;10211;49.476;11.010;2023-07-13T10:17:19;43.30;34.80
16999;DHT22;10211;49.476;11.010;2023-07-13T10:19:50;43.30;34.00
16999;DHT22;10211;49.476;11.010;2023-07-13T10:22:24;43.20;33.80
16999;DHT22;10211;49.476;11.010;2023-07-13T10:24:54;42.00;34.30
16999;DHT22;10211;49.476;11.010;2023-07-13T10:27:27;39.80;35.20
16999;DHT22;10211;49.476;11.010;2023-07-13T10:30:02;38.30;36.20
16999;DHT22;10211;49.476;11.010;2023-07-13T10:32:31;37.90;37.30
16999;DHT22;10211;49.476;11.010;2023-07-13T10:34:59;38.20;36.60
16999;DHT22;10211;49.476;11.010;2023-07-13T10:37:34;37.80;36.80
16999;DHT22;10211;49.476;11.010;2023-07-13T10:40:05;36.10;37.70
16999;DHT22;10211;49.476;11.010;2023-07-13T10:42:38;35.50;38.90
16999;DHT22;10211;49.476;11.010;2023-07-13T10:45:13;35.80;38.90
16999;DHT22;10211;49.476;11.010;2023-07-13T10:47:40;35.90;39.00
16999;DHT22;10211;49.476;11.010;2023-07-13T10:50:15;36.80;38.90
16999;DHT22;10211;49.476;11.010;2023-07-13T10:52:46;38.40;37.60
16999;DHT22;10211;49.476;11.010;2023-07-13T10:55:33;39.00;36.50
16999;DHT22;10211;49.476;11.010;2023-07-13T10:58:01;38.10;36.70
16999;DHT22;10211;49.476;11.010;2023-07-13T11:00:31;35.30;39.00
16999;DHT22;10211;49.476;11.010;2023-07-13T11:03:00;33.50;41.10
16999;DHT22;10211;49.476;11.010;2023-07-13T11:05:31;32.50;42.80
16999;DHT22;10211;49.476;11.010;2023-07-13T11:08:11;32.80;43.10
16999;DHT22;10211;49.476;11.010;2023-07-13T11:10:48;31.60;42.40
16999;DHT22;10211;49.476;11.010;2023-07-13T11:13:38;30.90;44.50
16999;DHT22;10211;49.476;11.010;2023-07-13T11:16:36;30.20;45.70
16999;DHT22;10211;49.476;11.010;2023-07-13T11:19:26;31.50;45.60
16999;DHT22;10211;49.476;11.010;2023-07-13T11:22:12;34.00;42.40
16999;DHT22;10211;49.476;11.010;2023-07-13T11:24:51;35.80;40.40
16999;DHT22;10211;49.476;11.010;2023-07-13T11:27:40;37.20;39.80
16999;DHT22;10211;49.476;11.010;2023-07-13T11:30:22;36.60;38.60
16999;DHT22;10211;49.476;11.010;2023-07-13T11:32:51;36.50;39.20
16999;DHT22;10211;49.476;11.010;2023-07-13T11:35:22;36.10;40.20
16999;DHT22;10211;49.476;11.010;2023-07-13T11:37:51;35.70;40.90
16999;DHT22;10211;49.476;11.010;2023-07-13T11:40:26;36.70;38.80
16999;DHT22;10211;49.476;11.010;2023-07-13T11:42:59;36.70;39.50
16999;DHT22;10211;49.476;11.010;2023-07-13T11:45:26;35.60;39.40
16999;DHT22;10211;49.476;11.010;2023-07-13T11:47:54;32.90;41.00
16999;DHT22;10211;49.476;11.010;2023-07-13T11:50:24;31.20;44.10
16999;DHT22;10211;49.476;11.010;2023-07-13T11:52:53;30.80;45.00
16999;DHT22;10211;49.476;11.010;2023-07-13T11:55:22;30.50;45.40
16999;DHT22;10211;49.476;11.010;2023-07-13T11:57:53;30.00;46.50
16999;DHT22;10211;49.476;11.010;2023-07-13T12:00:23;29.20;47.80
16999;DHT22;10211;49.476;11.010;2023-07-13T12:02:54;28.30;49.30
16999;DHT22;10211;49.476;11.010;2023-07-13T12:05:22;27.80;49.90
16999;DHT22;10211;49.476;11.010;2023-07-13T12:07:49;27.90;50.30
16999;DHT22;10211;49.476;11.010;2023-07-13T12:10:22;28.60;49.50
16999;DHT22;10211;49.476;11.010;2023-07-13T12:12:52;29.80;48.40
16999;DHT22;10211;49.476;11.010;2023-07-13T12:15:20;31.10;46.70
16999;DHT22;10211;49.476;11.010;2023-07-13T12:17:49;32.10;45.90
16999;DHT22;10211;49.476;11.010;2023-07-13T12:20:21;33.40;44.50
16999;DHT22;10211;49.476;11.010;2023-07-13T12:22:50;34.10;44.30
16999;DHT22;10211;49.476;11.010;2023-07-13T12:25:17;33.40;43.60
16999;DHT22;10211;49.476;11.010;2023-07-13T12:27:48;32.20;44.00
16999;DHT22;10211;49.476;11.010;2023-07-13T12:30:24;30.80;45.90
16999;DHT22;10211;49.476;11.010;2023-07-13T12:32:57;29.70;47.30
16999;DHT22;10211;49.476;11.010;2023-07-13T12:35:25;29.00;48.20
16999;DHT22;10211;49.476;11.010;2023-07-13T12:37:57;29.00;48.50
16999;DHT22;10211;49.476;11.010;2023-07-13T12:40:28;29.00;48.60
16999;DHT22;10211;49.476;11.010;2023-07-13T12:42:59;28.90;48.70
16999;DHT22;10211;49.476;11.010;2023-07-13T12:45:28;28.70;49.90
16999;DHT22;10211;49.476;11.010;2023-07-13T12:47:56;28.30;49.90
16999;DHT22;10211;49.476;11.010;2023-07-13T12:50:29;28.70;50.00
16999;DHT22;10211;49.476;11.010;2023-07-13T12:53:01;28.90;49.00
16999;DHT22;10211;49.476;11.010;2023-07-13T12:55:29;28.50;48.50
16999;DHT22;10211;49.476;11.010;2023-07-13T12:58:03;28.80;49.60
16999;DHT22;10211;49.476;11.010;2023-07-13T13:00:31;29.30;48.60
16999;DHT22;10211;49.476;11.010;2023-07-13T13:03:04;29.50;48.00
16999;DHT22;10211;49.476;11.010;2023-07-13T13:05:32;29.50;48.30
16999;DHT22;10211;49.476;11.010;2023-07-13T13:07:59;29.80;48.90
16999;DHT22;10211;49.476;11.010;2023-07-13T13:10:26;30.10;48.80
16999;DHT22;10211;49.476;11.010;2023-07-13T13:12:53;30.40;48.20
16999;DHT22;10211;49.476;11.010;2023-07-13T13:15:21;30.40;47.40
16999;DHT22;10211;49.476;11.010;2023-07-13T13:17:49;29.80;48.50
16999;DHT22;10211;49.476;11.010;2023-07-13T13:20:17;29.40;49.00
16999;DHT22;10211;49.476;11.010;2023-07-13T13:22:44;29.20;49.10
16999;DHT22;10211;49.476;11.010;2023-07-13T13:25:11;28.80;50.40
16999;DHT22;10211;49.476;11.010;2023-07-13T13:27:39;28.50;49.90
16999;DHT22;10211;49.476;11.010;2023-07-13T13:30:11;28.40;50.60
16999;DHT22;10211;49.476;11.010;2023-07-13T13:32:40;28.20;50.70
16999;DHT22;10211;49.476;11.010;2023-07-13T13:35:12;27.90;51.00
16999;DHT22;10211;49.476;11.010;2023-07-13T13:37:39;27.90;50.80
16999;DHT22;10211;49.476;11.010;2023-07-13T13:40:14;28.20;50.70
16999;DHT22;10211;49.476;11.010;2023-07-13T13:42:40;28.20;51.10
16999;DHT22;10211;49.476;11.010;2023-07-13T13:45:08;27.80;50.30
16999;DHT22;10211;49.476;11.010;2023-07-13T13:47:35;27.50;51.60
16999;DHT22;10211;49.476;11.010;2023-07-13T13:50:11;27.30;52.20
16999;DHT22;10211;49.476;11.010;2023-07-13T13:52:38;27.40;52.00
16999;DHT22;10211;49.476;11.010;2023-07-13T13:55:11;27.50;52.00
16999;DHT22;10211;49.476;11.010;2023-07-13T13:57:38;27.30;52.00
16999;DHT22;10211;49.476;11.010;2023-07-13T14:00:07;27.20;52.40
16999;DHT22;10211;49.476;11.010;2023-07-13T14:02:34;27.00;52.70
16999;DHT22;10211;49.476;11.010;2023-07-13T14:05:05;26.90;52.70
16999;DHT22;10211;49.476;11.010;2023-07-13T14:07:33;27.00;53.00
16999;DHT22;10211;49.476;11.010;2023-07-13T14:10:00;27.20;52.20
16999;DHT22;10211;49.476;11.010;2023-07-13T14:12:28;27.40;51.60
16999;DHT22;10211;49.476;11.010;2023-07-13T14:14:56;27.30;51.20
16999;DHT22;10211;49.476;11.010;2023-07-13T14:17:25;27.20;51.30
16999;DHT22;10211;49.476;11.010;2023-07-13T14:19:53;27.00;52.20
16999;DHT22;10211;49.476;11.010;2023-07-13T14:22:24;26.70;52.00
16999;DHT22;10211;49.476;11.010;2023-07-13T14:24:52;26.90;53.30
16999;DHT22;10211;49.476;11.010;2023-07-13T14:27:19;27.40;51.80
16999;DHT22;10211;49.476;11.010;2023-07-13T14:29:46;27.60;51.20
16999;DHT22;10211;49.476;11.010;2023-07-13T14:32:15;27.90;51.60
16999;DHT22;10211;49.476;11.010;2023-07-13T14:34:42;28.00;50.60
16999;DHT22;10211;49.476;11.010;2023-07-13T14:37:12;28.10;50.70
16999;DHT22;10211;49.476;11.010;2023-07-13T14:39:43;27.70;50.40
16999;DHT22;10211;49.476;11.010;2023-07-13T14:42:11;27.20;51.30
16999;DHT22;10211;49.476;11.010;2023-07-13T14:44:39;27.00;51.30
16999;DHT22;10211;49.476;11.010;2023-07-13T14:47:07;27.00;51.40
16999;DHT22;10211;49.476;11.010;2023-07-13T14:49:36;27.40;52.20
16999;DHT22;10211;49.476;11.010;2023-07-13T14:52:10;28.00;51.60
16999;DHT22;10211;49.476;11.010;2023-07-13T14:54:38;28.40;50.00
16999;DHT22;10211;49.476;11.010;2023-07-13T14:57:10;28.50;50.50
16999;DHT22;10211;49.476;11.010;2023-07-13T14:59:37;28.00;50.00
16999;DHT22;10211;49.476;11.010;2023-07-13T15:02:14;27.60;50.80
16999;DHT22;10211;49.476;11.010;2023-07-13T15:04:42;27.30;50.50
16999;DHT22;10211;49.476;11.010;2023-07-13T15:07:10;27.30;51.00
16999;DHT22;10211;49.476;11.010;2023-07-13T15:09:37;27.20;50.90
16999;DHT22;10211;49.476;11.010;2023-07-13T15:12:05;27.40;50.40
16999;DHT22;10211;49.476;11.010;2023-07-13T15:14:33;27.40;50.70
16999;DHT22;10211;49.476;11.010;2023-07-13T15:17:00;27.60;50.60
16999;DHT22;10211;49.476;11.010;2023-07-13T15:19:27;27.70;50.90
16999;DHT22;10211;49.476;11.010;2023-07-13T15:21:55;27.60;51.00
16999;DHT22;10211;49.476;11.010;2023-07-13T15:24:23;27.50;51.60
16999;DHT22;10211;49.476;11.010;2023-07-13T15:26:50;27.40;50.70